Terminal Aerodrome Forecast
Issued by NWS

Home | Current Version | Previous Version | Graphics & Text | Print | Product List | Glossary On
Versions: 1 2 3 4 5 6 7 8 9 10 11 12 13 14 15 16 17 18 19
000
FTUS43 KTOP 191138
TAFFOE
TAF
KFOE 191138Z 1912/2012 15004KT 3SM BR OVC003
     FM191700 15005KT 4SM BR OVC007
     FM191900 15006KT 6SM BR OVC010
     FM192300 11005KT 6SM -DZ BR OVC008
     FM200400 12004KT 3SM -DZ BR OVC003
     FM200600 VRB03KT 2SM BR OVC003=

USA.gov is the U.S. government's official web portal to all federal, state and local government web resources and services.